CheckWX is a tool to help pilots better visualize weather data.  It is not intended as a substitute for an official pre-flight weather briefing.

13:04:30 UTC

FIMR TAF
Sir Charles Gaetan Duval Airport
Port Mathurin, Mauritius
TAF FIMR 241130Z 2412/2506 11010KT 9999 SCT018 PROB30 TEMPO 2418/2506 7000 -SHRA FEW010 BKN016 BKN050

May-24@
12:00 UTC

May-24 @ 12:00 UTC

May-25@
06:00 UTC

May-25 @ 06:00 UTC

TAF FIMR 241130Z 2412/2506 11010KT 9999 SCT018
Wind
  • 110° at 10 KTS
Cloud Levels
  • Scattered at 1,800' AGL

May-24@
18:00 UTC

May-24 @ 18:00 UTC

May-25@
06:00 UTC

May-25 @ 06:00 UTC

PROB30 TEMPO 2418/2506 7000 -SHRA FEW010 BKN016 BKN050

Temporary - 30% Likelihood

Temporary - 30% Likelihood during this time.

Conditions
Light Rain
Cloud Levels
  • Few at 1,000' AGL
  • Broken at 1,600' AGL
  • Broken at 5,000' AGL